createdAt,value
2022-12-25T00:00:55.844Z,1012.06
2022-12-25T00:01:55.736Z,1012.05
2022-12-25T00:02:55.850Z,1012.06
2022-12-25T00:03:55.807Z,1012.06
2022-12-25T00:04:55.688Z,1012.05
2022-12-25T00:05:55.693Z,1012.04
2022-12-25T00:06:55.689Z,1012.03
2022-12-25T00:07:55.704Z,1012.04
2022-12-25T00:08:55.657Z,1012.03
2022-12-25T00:09:55.818Z,1012.02
2022-12-25T00:10:55.622Z,1012.01
2022-12-25T00:11:55.663Z,1012.02
2022-12-25T00:12:55.649Z,1012.04
2022-12-25T00:13:55.606Z,1012.04
2022-12-25T00:14:55.746Z,1012.04
2022-12-25T00:15:55.624Z,1012.06
2022-12-25T00:16:55.567Z,1012.06
2022-12-25T00:17:55.587Z,1012.07
2022-12-25T00:18:55.533Z,1012.08
2022-12-25T00:19:55.630Z,1012.09
2022-12-25T00:20:55.520Z,1012.11
2022-12-25T00:21:55.517Z,1012.10
2022-12-25T00:22:55.533Z,1012.10
2022-12-25T00:23:55.493Z,1012.10
2022-12-25T00:24:55.575Z,1012.10
2022-12-25T00:25:55.469Z,1012.07
2022-12-25T00:26:55.481Z,1012.07
2022-12-25T00:27:55.442Z,1012.07
2022-12-25T00:28:55.434Z,1012.06
2022-12-25T00:29:55.500Z,1012.08
2022-12-25T00:30:55.466Z,1012.10
2022-12-25T00:31:55.492Z,1012.12
2022-12-25T00:32:55.418Z,1012.14
2022-12-25T00:33:55.389Z,1012.15
2022-12-25T00:34:55.588Z,1012.18
2022-12-25T00:35:55.360Z,1012.18
2022-12-25T00:36:55.404Z,1012.18
2022-12-25T00:37:55.337Z,1012.19
2022-12-25T00:38:55.348Z,1012.21
2022-12-25T00:39:55.487Z,1012.22
2022-12-25T00:40:55.313Z,1012.23
2022-12-25T00:41:55.316Z,1012.24
2022-12-25T00:42:55.337Z,1012.25
2022-12-25T00:43:55.281Z,1012.26
2022-12-25T00:44:55.381Z,1012.28
2022-12-25T00:45:55.366Z,1012.29
2022-12-25T00:46:55.281Z,1012.31
2022-12-25T00:47:55.252Z,1012.31
2022-12-25T00:48:55.226Z,1012.32
2022-12-25T00:49:55.317Z,1012.32
2022-12-25T00:50:55.211Z,1012.32
2022-12-25T00:51:55.214Z,1012.31
2022-12-25T00:52:55.184Z,1012.29
2022-12-25T00:53:55.188Z,1012.29
2022-12-25T00:54:55.320Z,1012.30
2022-12-25T00:55:55.171Z,1012.31
2022-12-25T00:56:55.177Z,1012.34
2022-12-25T00:57:55.131Z,1012.38
2022-12-25T00:58:55.120Z,1012.40
2022-12-25T00:59:55.263Z,1012.44
2022-12-25T01:00:55.138Z,1012.47
2022-12-25T01:01:55.263Z,1012.48
2022-12-25T01:02:55.278Z,1012.50
2022-12-25T01:03:55.100Z,1012.51
2022-12-25T01:04:55.090Z,1012.51
2022-12-25T01:05:55.049Z,1012.55
2022-12-25T01:06:55.024Z,1012.57
2022-12-25T01:07:55.053Z,1012.59
2022-12-25T01:08:55.039Z,1012.61
2022-12-25T01:09:55.169Z,1012.63
2022-12-25T01:10:55.013Z,1012.63
2022-12-25T01:11:55.001Z,1012.64
2022-12-25T01:12:54.998Z,1012.66
2022-12-25T01:13:54.978Z,1012.65
2022-12-25T01:14:55.000Z,1012.62
2022-12-25T01:15:55.094Z,1012.59
2022-12-25T01:16:55.050Z,1012.57
2022-12-25T01:17:54.963Z,1012.58
2022-12-25T01:18:54.942Z,1012.58
2022-12-25T01:19:55.022Z,1012.60
2022-12-25T01:20:54.901Z,1012.60
2022-12-25T01:21:54.903Z,1012.62
2022-12-25T01:22:54.869Z,1012.64
2022-12-25T01:23:54.894Z,1012.66
2022-12-25T01:24:54.992Z,1012.68
2022-12-25T01:25:54.862Z,1012.71
2022-12-25T01:26:54.842Z,1012.73
2022-12-25T01:27:54.834Z,1012.75
2022-12-25T01:28:54.806Z,1012.78
2022-12-25T01:29:54.919Z,1012.80
2022-12-25T01:30:54.792Z,1012.83
2022-12-25T01:31:54.950Z,1012.85
2022-12-25T01:32:55.225Z,1012.89
2022-12-25T01:33:54.816Z,1012.90
2022-12-25T01:34:56.378Z,1012.90
2022-12-25T01:35:54.768Z,1012.89
2022-12-25T01:36:54.728Z,1012.89
2022-12-25T01:37:54.756Z,1012.90
2022-12-25T01:38:54.747Z,1012.91
2022-12-25T01:39:54.788Z,1012.92
2022-12-25T01:40:54.704Z,1012.94
2022-12-25T01:41:54.690Z,1012.95
2022-12-25T01:42:54.751Z,1012.96
2022-12-25T01:43:54.661Z,1012.97
2022-12-25T01:44:54.798Z,1012.98
2022-12-25T01:45:54.706Z,1013.01
2022-12-25T01:46:54.656Z,1013.04
2022-12-25T01:47:54.632Z,1013.06
2022-12-25T01:48:54.597Z,1013.08
2022-12-25T01:49:54.749Z,1013.10
2022-12-25T01:50:54.584Z,1013.09
2022-12-25T01:51:54.580Z,1013.07
2022-12-25T01:52:54.597Z,1013.05
2022-12-25T01:53:54.580Z,1013.03
2022-12-25T01:54:54.540Z,1013.01
2022-12-25T01:55:54.533Z,1013.05
2022-12-25T01:56:54.523Z,1013.06
2022-12-25T01:57:54.541Z,1013.04
2022-12-25T01:58:54.512Z,1013.01
2022-12-25T01:59:54.589Z,1012.99
2022-12-25T02:00:54.525Z,1012.97
2022-12-25T02:01:54.783Z,1012.97
2022-12-25T02:02:54.658Z,1012.98
2022-12-25T02:03:54.455Z,1013.00
2022-12-25T02:04:54.443Z,1013.00
2022-12-25T02:05:54.437Z,1013.01
2022-12-25T02:06:54.421Z,1013.04
2022-12-25T02:07:54.419Z,1013.07
2022-12-25T02:08:54.443Z,1013.10
2022-12-25T02:09:54.525Z,1013.12
2022-12-25T02:10:54.401Z,1013.13
2022-12-25T02:11:54.365Z,1013.14
2022-12-25T02:12:54.357Z,1013.15
2022-12-25T02:13:54.363Z,1013.15
2022-12-25T02:14:58.293Z,1013.17
2022-12-25T02:15:54.343Z,1013.18
2022-12-25T02:16:57.956Z,1013.17
2022-12-25T02:17:54.329Z,1013.16
2022-12-25T02:18:54.346Z,1013.12
2022-12-25T02:19:54.314Z,1013.13
2022-12-25T02:20:54.263Z,1013.15
2022-12-25T02:21:54.288Z,1013.17
2022-12-25T02:22:54.289Z,1013.21
2022-12-25T02:23:54.256Z,1013.25
2022-12-25T02:24:54.386Z,1013.25
2022-12-25T02:25:54.245Z,1013.24
2022-12-25T02:26:54.219Z,1013.23
2022-12-25T02:27:54.204Z,1013.21
2022-12-25T02:28:54.189Z,1013.19
2022-12-25T02:29:54.312Z,1013.18
2022-12-25T02:30:54.168Z,1013.18
2022-12-25T02:31:54.272Z,1013.18
2022-12-25T02:32:54.149Z,1013.19
2022-12-25T02:33:54.165Z,1013.21
2022-12-25T02:34:54.381Z,1013.23
2022-12-25T02:35:54.124Z,1013.23
2022-12-25T02:36:54.123Z,1013.21
2022-12-25T02:37:54.111Z,1013.22
2022-12-25T02:38:54.114Z,1013.23
2022-12-25T02:39:54.248Z,1013.25
2022-12-25T02:40:54.068Z,1013.27
2022-12-25T02:41:54.055Z,1013.30
2022-12-25T02:42:54.032Z,1013.32
2022-12-25T02:43:54.043Z,1013.34
2022-12-25T02:44:54.076Z,1013.34
2022-12-25T02:45:54.019Z,1013.36
2022-12-25T02:46:54.026Z,1013.35
2022-12-25T02:47:53.989Z,1013.30
2022-12-25T02:48:53.981Z,1013.28
2022-12-25T02:49:54.107Z,1013.30
2022-12-25T02:50:53.948Z,1013.31
2022-12-25T02:51:53.964Z,1013.31
2022-12-25T02:52:53.985Z,1013.32
2022-12-25T02:53:53.937Z,1013.32
2022-12-25T02:54:54.079Z,1013.32
2022-12-25T02:55:53.929Z,1013.31
2022-12-25T02:56:53.944Z,1013.31
2022-12-25T02:57:53.904Z,1013.31
2022-12-25T02:58:53.901Z,1013.32
2022-12-25T02:59:54.019Z,1013.33
2022-12-25T03:00:53.911Z,1013.34
2022-12-25T03:01:53.968Z,1013.35
2022-12-25T03:02:53.892Z,1013.34
2022-12-25T03:03:53.854Z,1013.34
2022-12-25T03:04:54.018Z,1013.35
2022-12-25T03:05:53.803Z,1013.37
2022-12-25T03:06:53.791Z,1013.38
2022-12-25T03:07:53.777Z,1013.39
2022-12-25T03:08:53.800Z,1013.38
2022-12-25T03:09:53.753Z,1013.38
2022-12-25T03:10:53.747Z,1013.37
2022-12-25T03:11:53.738Z,1013.34
2022-12-25T03:12:53.744Z,1013.33
2022-12-25T03:13:53.730Z,1013.32
2022-12-25T03:14:53.710Z,1013.33
2022-12-25T03:15:53.690Z,1013.34
2022-12-25T03:16:54.017Z,1013.36
2022-12-25T03:17:53.670Z,1013.38
2022-12-25T03:18:53.690Z,1013.37
2022-12-25T03:19:53.651Z,1013.40
2022-12-25T03:20:53.734Z,1013.41
2022-12-25T03:21:53.653Z,1013.42
2022-12-25T03:22:53.651Z,1013.41
2022-12-25T03:23:53.616Z,1013.40
2022-12-25T03:24:53.611Z,1013.37
2022-12-25T03:25:53.592Z,1013.35
2022-12-25T03:26:53.650Z,1013.34
2022-12-25T03:27:53.571Z,1013.36
2022-12-25T03:28:53.568Z,1013.39
2022-12-25T03:29:53.702Z,1013.42
2022-12-25T03:30:53.610Z,1013.43
2022-12-25T03:31:53.544Z,1013.44
2022-12-25T03:32:53.536Z,1013.45
2022-12-25T03:33:53.503Z,1013.46
2022-12-25T03:34:53.499Z,1013.47
2022-12-25T03:35:53.478Z,1013.48
2022-12-25T03:36:53.475Z,1013.49
2022-12-25T03:37:53.504Z,1013.49
2022-12-25T03:38:53.454Z,1013.49
2022-12-25T03:39:53.458Z,1013.50
2022-12-25T03:40:53.443Z,1013.52
2022-12-25T03:41:53.458Z,1013.55
2022-12-25T03:42:53.430Z,1013.57
2022-12-25T03:43:53.419Z,1013.58
2022-12-25T03:44:53.591Z,1013.57
2022-12-25T03:45:53.421Z,1013.57
2022-12-25T03:46:53.372Z,1013.59
2022-12-25T03:47:53.372Z,1013.61
2022-12-25T03:48:53.356Z,1013.63
2022-12-25T03:49:53.343Z,1013.65
2022-12-25T03:50:53.345Z,1013.67
2022-12-25T03:51:53.315Z,1013.67
2022-12-25T03:52:53.338Z,1013.66
2022-12-25T03:53:53.305Z,1013.64
2022-12-25T03:54:53.299Z,1013.61
2022-12-25T03:55:53.283Z,1013.62
2022-12-25T03:56:53.278Z,1013.61
2022-12-25T03:57:53.276Z,1013.63
2022-12-25T03:58:53.284Z,1013.68
2022-12-25T03:59:53.247Z,1013.69
2022-12-25T04:00:53.233Z,1013.72
2022-12-25T04:01:53.374Z,1013.73
2022-12-25T04:02:53.425Z,1013.74
2022-12-25T04:03:53.228Z,1013.76
2022-12-25T04:04:53.269Z,1013.77
2022-12-25T04:05:53.196Z,1013.78
2022-12-25T04:06:53.230Z,1013.79
2022-12-25T04:07:53.193Z,1013.78
2022-12-25T04:08:53.237Z,1013.78
2022-12-25T04:09:53.235Z,1013.77
2022-12-25T04:10:53.195Z,1013.78
2022-12-25T04:11:57.319Z,1013.79
2022-12-25T04:12:53.179Z,1013.81
2022-12-25T04:13:53.099Z,1013.83
2022-12-25T04:14:53.091Z,1013.83
2022-12-25T04:15:53.113Z,1013.86
2022-12-25T04:16:53.066Z,1013.85
2022-12-25T04:17:53.145Z,1013.85
2022-12-25T04:18:53.061Z,1013.84
2022-12-25T04:19:53.133Z,1013.84
2022-12-25T04:20:53.025Z,1013.85
2022-12-25T04:21:53.002Z,1013.86
2022-12-25T04:22:53.013Z,1013.86
2022-12-25T04:23:53.010Z,1013.86
2022-12-25T04:24:52.995Z,1013.86
2022-12-25T04:25:52.969Z,1013.84
2022-12-25T04:26:52.971Z,1013.84
2022-12-25T04:27:52.957Z,1013.87
2022-12-25T04:28:52.972Z,1013.86
2022-12-25T04:29:52.925Z,1013.84
2022-12-25T04:30:52.951Z,1013.83
2022-12-25T04:31:52.903Z,1013.82
2022-12-25T04:32:52.905Z,1013.82
2022-12-25T04:33:52.887Z,1013.81
2022-12-25T04:34:52.871Z,1013.79
2022-12-25T04:35:52.867Z,1013.79
2022-12-25T04:36:52.849Z,1013.78
2022-12-25T04:37:52.918Z,1013.79
2022-12-25T04:38:52.853Z,1013.82
2022-12-25T04:39:52.824Z,1013.83
2022-12-25T04:40:52.816Z,1013.85
2022-12-25T04:41:52.801Z,1013.86
2022-12-25T04:42:52.805Z,1013.88
2022-12-25T04:43:52.797Z,1013.91
2022-12-25T04:44:52.769Z,1013.94
2022-12-25T04:45:52.750Z,1013.97
2022-12-25T04:46:52.893Z,1014.00
2022-12-25T04:47:52.756Z,1014.02
2022-12-25T04:48:52.738Z,1014.02
2022-12-25T04:49:52.715Z,1014.03
2022-12-25T04:50:52.736Z,1014.06
2022-12-25T04:51:52.716Z,1014.09
2022-12-25T04:52:52.691Z,1014.11
2022-12-25T04:53:52.724Z,1014.12
2022-12-25T04:54:52.663Z,1014.11
2022-12-25T04:55:52.670Z,1014.09
2022-12-25T04:56:52.653Z,1014.05
2022-12-25T04:57:52.663Z,1014.04
2022-12-25T04:58:52.649Z,1014.04
2022-12-25T04:59:52.638Z,1014.04
2022-12-25T05:00:52.618Z,1014.06
2022-12-25T05:01:52.731Z,1014.06
2022-12-25T05:02:52.801Z,1014.05
2022-12-25T05:03:52.627Z,1014.06
2022-12-25T05:04:52.571Z,1014.07
2022-12-25T05:05:52.553Z,1014.07
2022-12-25T05:06:52.538Z,1014.05
2022-12-25T05:07:52.531Z,1014.02
2022-12-25T05:08:52.540Z,1014.01
2022-12-25T05:09:52.513Z,1014.02
2022-12-25T05:10:52.504Z,1014.02
2022-12-25T05:11:52.484Z,1014.00
2022-12-25T05:12:52.491Z,1013.98
2022-12-25T05:13:52.465Z,1013.96
2022-12-25T05:14:52.465Z,1013.95
2022-12-25T05:15:52.503Z,1013.93
2022-12-25T05:16:52.450Z,1013.91
2022-12-25T05:17:52.445Z,1013.89
2022-12-25T05:18:52.438Z,1013.89
2022-12-25T05:19:52.407Z,1013.88
2022-12-25T05:20:52.412Z,1013.88
2022-12-25T05:21:52.415Z,1013.87
2022-12-25T05:22:52.377Z,1013.88
2022-12-25T05:23:52.355Z,1013.89
2022-12-25T05:24:52.355Z,1013.89
2022-12-25T05:25:52.347Z,1013.89
2022-12-25T05:26:52.323Z,1013.90
2022-12-25T05:27:54.093Z,1013.89
2022-12-25T05:28:52.297Z,1013.89
2022-12-25T05:29:52.317Z,1013.86
2022-12-25T05:30:52.372Z,1013.84
2022-12-25T05:31:52.293Z,1013.82
2022-12-25T05:32:52.281Z,1013.81
2022-12-25T05:33:52.253Z,1013.81
2022-12-25T05:34:52.243Z,1013.83
2022-12-25T05:35:52.230Z,1013.85
2022-12-25T05:36:52.236Z,1013.86
2022-12-25T05:37:52.226Z,1013.87
2022-12-25T05:38:52.204Z,1013.88
2022-12-25T05:39:52.230Z,1013.89
2022-12-25T05:40:52.180Z,1013.89
2022-12-25T05:41:52.175Z,1013.90
2022-12-25T05:42:52.173Z,1013.90
2022-12-25T05:43:52.159Z,1013.91
2022-12-25T05:44:52.159Z,1013.91
2022-12-25T05:45:52.122Z,1013.92
2022-12-25T05:46:52.249Z,1013.94
2022-12-25T05:47:52.144Z,1013.94
2022-12-25T05:48:52.123Z,1013.94
2022-12-25T05:49:52.095Z,1013.94
2022-12-25T05:50:52.073Z,1013.93
2022-12-25T05:51:52.052Z,1013.92
2022-12-25T05:52:52.061Z,1013.92
2022-12-25T05:53:52.065Z,1013.91
2022-12-25T05:54:52.035Z,1013.91
2022-12-25T05:55:52.041Z,1013.91
2022-12-25T05:56:52.003Z,1013.89
2022-12-25T05:57:52.021Z,1013.88
2022-12-25T05:58:52.053Z,1013.86
2022-12-25T05:59:52.002Z,1013.83
2022-12-25T06:00:51.983Z,1013.81
2022-12-25T06:01:52.060Z,1013.83
2022-12-25T06:02:52.027Z,1013.84
2022-12-25T06:03:52.041Z,1013.85
2022-12-25T06:04:51.939Z,1013.83
2022-12-25T06:05:51.922Z,1013.79
2022-12-25T06:06:51.906Z,1013.76
2022-12-25T06:07:51.894Z,1013.72
2022-12-25T06:08:51.912Z,1013.71
2022-12-25T06:09:51.871Z,1013.70
2022-12-25T06:10:51.875Z,1013.68
2022-12-25T06:11:51.849Z,1013.67
2022-12-25T06:12:51.839Z,1013.68
2022-12-25T06:13:51.865Z,1013.69
2022-12-25T06:14:51.820Z,1013.72
2022-12-25T06:15:51.818Z,1013.72
2022-12-25T06:16:51.845Z,1013.71
2022-12-25T06:17:51.790Z,1013.70
2022-12-25T06:18:51.815Z,1013.68
2022-12-25T06:19:51.794Z,1013.66
2022-12-25T06:20:51.757Z,1013.64
2022-12-25T06:21:51.758Z,1013.64
2022-12-25T06:22:51.743Z,1013.65
2022-12-25T06:23:51.844Z,1013.65
2022-12-25T06:24:51.715Z,1013.64
2022-12-25T06:25:51.714Z,1013.63
2022-12-25T06:26:51.705Z,1013.64
2022-12-25T06:27:51.684Z,1013.65
2022-12-25T06:28:51.703Z,1013.68
2022-12-25T06:29:51.698Z,1013.70
2022-12-25T06:30:51.667Z,1013.72
2022-12-25T06:31:51.702Z,1013.74
2022-12-25T06:32:51.684Z,1013.76
2022-12-25T06:33:51.659Z,1013.77
2022-12-25T06:34:51.608Z,1013.78
2022-12-25T06:35:51.557Z,1013.78
2022-12-25T06:36:51.592Z,1013.77
2022-12-25T06:37:51.638Z,1013.74
2022-12-25T06:38:51.584Z,1013.71
2022-12-25T06:39:51.571Z,1013.70
2022-12-25T06:40:51.561Z,1013.71
2022-12-25T06:41:51.545Z,1013.72
2022-12-25T06:42:51.533Z,1013.73
2022-12-25T06:43:51.558Z,1013.74
2022-12-25T06:44:51.458Z,1013.74
2022-12-25T06:45:51.534Z,1013.73
2022-12-25T06:46:51.454Z,1013.73
2022-12-25T06:47:51.421Z,1013.74
2022-12-25T06:48:51.444Z,1013.75
2022-12-25T06:49:51.408Z,1013.77
2022-12-25T06:50:51.386Z,1013.75
2022-12-25T06:51:51.404Z,1013.73
2022-12-25T06:52:51.362Z,1013.72
2022-12-25T06:53:51.390Z,1013.73
2022-12-25T06:54:51.374Z,1013.77
2022-12-25T06:55:51.365Z,1013.81
2022-12-25T06:56:51.334Z,1013.85
2022-12-25T06:57:51.327Z,1013.89
2022-12-25T06:58:51.321Z,1013.92
2022-12-25T06:59:55.158Z,1013.94
2022-12-25T07:00:51.343Z,1013.95
2022-12-25T07:01:51.496Z,1013.96
2022-12-25T07:02:51.516Z,1013.97
2022-12-25T07:03:51.294Z,1013.99
2022-12-25T07:04:51.246Z,1014.01
2022-12-25T07:05:51.253Z,1014.03
2022-12-25T07:06:51.247Z,1014.04
2022-12-25T07:07:51.332Z,1014.03
2022-12-25T07:08:51.218Z,1014.01
2022-12-25T07:09:51.222Z,1014.02
2022-12-25T07:10:51.173Z,1014.04
2022-12-25T07:11:51.185Z,1014.05
2022-12-25T07:12:51.156Z,1014.06
2022-12-25T07:13:51.206Z,1014.11
2022-12-25T07:14:51.127Z,1014.13
2022-12-25T07:15:51.134Z,1014.12
2022-12-25T07:16:51.221Z,1014.13
2022-12-25T07:17:51.107Z,1014.17
2022-12-25T07:18:51.099Z,1014.20
2022-12-25T07:19:51.095Z,1014.22
2022-12-25T07:20:51.101Z,1014.23
2022-12-25T07:21:51.071Z,1014.26
2022-12-25T07:22:51.054Z,1014.27
2022-12-25T07:23:51.092Z,1014.29
2022-12-25T07:24:51.027Z,1014.32
2022-12-25T07:25:51.035Z,1014.33
2022-12-25T07:26:51.007Z,1014.33
2022-12-25T07:27:51.023Z,1014.33
2022-12-25T07:28:51.033Z,1014.32
2022-12-25T07:29:50.981Z,1014.30
2022-12-25T07:30:50.994Z,1014.32
2022-12-25T07:31:51.054Z,1014.34
2022-12-25T07:32:50.944Z,1014.40
2022-12-25T07:33:50.956Z,1014.41
2022-12-25T07:34:50.974Z,1014.41
2022-12-25T07:35:50.935Z,1014.41
2022-12-25T07:36:50.910Z,1014.44
2022-12-25T07:37:50.905Z,1014.45
2022-12-25T07:38:50.913Z,1014.47
2022-12-25T07:39:50.881Z,1014.48
2022-12-25T07:40:50.890Z,1014.47
2022-12-25T07:41:50.929Z,1014.46
2022-12-25T07:42:50.860Z,1014.45
2022-12-25T07:43:50.881Z,1014.44
2022-12-25T07:44:50.863Z,1014.43
2022-12-25T07:45:50.902Z,1014.43
2022-12-25T07:46:50.817Z,1014.43
2022-12-25T07:47:52.861Z,1014.42
2022-12-25T07:48:50.798Z,1014.42
2022-12-25T07:49:50.789Z,1014.41
2022-12-25T07:50:50.777Z,1014.41
2022-12-25T07:51:50.766Z,1014.40
2022-12-25T07:52:50.748Z,1014.37
2022-12-25T07:53:50.740Z,1014.35
2022-12-25T07:54:50.740Z,1014.31
2022-12-25T07:55:50.716Z,1014.27
2022-12-25T07:56:50.712Z,1014.26
2022-12-25T07:57:50.703Z,1014.24
2022-12-25T07:58:50.695Z,1014.25
2022-12-25T07:59:50.678Z,1014.25
2022-12-25T08:00:50.766Z,1014.24
2022-12-25T08:01:51.063Z,1014.24
2022-12-25T08:02:50.854Z,1014.24
2022-12-25T08:03:50.777Z,1014.26
2022-12-25T08:04:50.703Z,1014.29
2022-12-25T08:05:50.608Z,1014.30
2022-12-25T08:06:50.607Z,1014.32
2022-12-25T08:07:56.972Z,1014.33
2022-12-25T08:08:50.589Z,1014.33
2022-12-25T08:09:50.565Z,1014.34
2022-12-25T08:10:50.565Z,1014.35
2022-12-25T08:11:50.559Z,1014.38
2022-12-25T08:12:50.547Z,1014.42
2022-12-25T08:13:50.572Z,1014.46
2022-12-25T08:14:50.526Z,1014.51
2022-12-25T08:15:50.541Z,1014.53
2022-12-25T08:16:50.624Z,1014.50
2022-12-25T08:17:50.500Z,1014.47
2022-12-25T08:18:50.485Z,1014.45
2022-12-25T08:19:50.479Z,1014.42
2022-12-25T08:20:50.465Z,1014.40
2022-12-25T08:21:50.461Z,1014.41
2022-12-25T08:22:50.431Z,1014.44
2022-12-25T08:23:50.541Z,1014.47
2022-12-25T08:24:50.431Z,1014.49
2022-12-25T08:25:50.413Z,1014.48
2022-12-25T08:26:50.390Z,1014.45
2022-12-25T08:27:50.393Z,1014.44
2022-12-25T08:28:50.396Z,1014.42
2022-12-25T08:29:50.369Z,1014.40
2022-12-25T08:30:50.414Z,1014.38
2022-12-25T08:31:50.384Z,1014.36
2022-12-25T08:32:50.343Z,1014.33
2022-12-25T08:33:50.376Z,1014.30
2022-12-25T08:34:50.348Z,1014.28
2022-12-25T08:35:50.317Z,1014.27
2022-12-25T08:36:50.321Z,1014.29
2022-12-25T08:37:50.277Z,1014.28
2022-12-25T08:38:50.288Z,1014.30
2022-12-25T08:39:50.289Z,1014.31
2022-12-25T08:40:50.242Z,1014.33
2022-12-25T08:41:50.262Z,1014.34
2022-12-25T08:42:50.239Z,1014.33
2022-12-25T08:43:50.234Z,1014.30
2022-12-25T08:44:51.086Z,1014.27
2022-12-25T08:45:50.247Z,1014.26
2022-12-25T08:46:50.216Z,1014.23
2022-12-25T08:47:50.180Z,1014.24
2022-12-25T08:48:50.189Z,1014.21
2022-12-25T08:49:50.184Z,1014.20
2022-12-25T08:50:50.183Z,1014.19
2022-12-25T08:51:50.144Z,1014.18
2022-12-25T08:52:50.119Z,1014.15
2022-12-25T08:53:50.131Z,1014.12
2022-12-25T08:54:50.104Z,1014.09
2022-12-25T08:55:50.090Z,1014.09
2022-12-25T08:56:50.080Z,1014.08
2022-12-25T08:57:50.074Z,1014.07
2022-12-25T08:58:50.099Z,1014.04
2022-12-25T08:59:50.049Z,1014.00
2022-12-25T09:00:50.068Z,1013.97
2022-12-25T09:01:50.121Z,1013.93
2022-12-25T09:02:50.102Z,1013.89
2022-12-25T09:03:50.091Z,1013.85
2022-12-25T09:04:49.992Z,1013.82
2022-12-25T09:05:50.003Z,1013.81
2022-12-25T09:06:50.033Z,1013.81
2022-12-25T09:07:49.976Z,1013.81
2022-12-25T09:08:50.202Z,1013.83
2022-12-25T09:09:49.957Z,1013.87
2022-12-25T09:10:49.939Z,1013.90
2022-12-25T09:11:49.941Z,1013.91
2022-12-25T09:12:49.917Z,1013.89
2022-12-25T09:13:49.935Z,1013.85
2022-12-25T09:14:49.938Z,1013.83
2022-12-25T09:15:49.959Z,1013.81
2022-12-25T09:16:49.870Z,1013.80
2022-12-25T09:17:49.876Z,1013.79
2022-12-25T09:18:49.956Z,1013.79
2022-12-25T09:19:49.833Z,1013.80
2022-12-25T09:20:49.838Z,1013.81
2022-12-25T09:21:49.837Z,1013.82
2022-12-25T09:22:49.814Z,1013.82
2022-12-25T09:23:49.817Z,1013.82
2022-12-25T09:24:49.795Z,1013.81
2022-12-25T09:25:49.777Z,1013.80
2022-12-25T09:26:49.776Z,1013.81
2022-12-25T09:27:49.765Z,1013.80
2022-12-25T09:28:52.359Z,1013.79
2022-12-25T09:29:49.758Z,1013.78
2022-12-25T09:30:49.753Z,1013.76
2022-12-25T09:31:49.711Z,1013.73
2022-12-25T09:32:49.702Z,1013.72
2022-12-25T09:33:49.731Z,1013.72
2022-12-25T09:34:49.676Z,1013.74
2022-12-25T09:35:49.685Z,1013.74
2022-12-25T09:36:49.664Z,1013.74
2022-12-25T09:37:49.650Z,1013.71
2022-12-25T09:38:49.681Z,1013.69
2022-12-25T09:39:49.637Z,1013.68
2022-12-25T09:40:49.645Z,1013.69
2022-12-25T09:41:49.615Z,1013.70
2022-12-25T09:42:49.614Z,1013.70
2022-12-25T09:43:49.648Z,1013.69
2022-12-25T09:44:49.573Z,1013.71
2022-12-25T09:45:49.617Z,1013.73
2022-12-25T09:46:49.674Z,1013.74
2022-12-25T09:47:49.547Z,1013.74
2022-12-25T09:48:49.577Z,1013.75
2022-12-25T09:49:49.542Z,1013.74
2022-12-25T09:50:49.511Z,1013.75
2022-12-25T09:51:49.540Z,1013.76
2022-12-25T09:52:49.514Z,1013.75
2022-12-25T09:53:49.541Z,1013.76
2022-12-25T09:54:49.498Z,1013.77
2022-12-25T09:55:49.475Z,1013.79
2022-12-25T09:56:49.473Z,1013.80
2022-12-25T09:57:49.462Z,1013.81
2022-12-25T09:58:49.467Z,1013.79
2022-12-25T09:59:49.429Z,1013.78
2022-12-25T10:00:49.444Z,1013.79
2022-12-25T10:01:49.578Z,1013.79
2022-12-25T10:02:49.660Z,1013.81
2022-12-25T10:03:49.511Z,1013.82
2022-12-25T10:04:49.383Z,1013.83
2022-12-25T10:05:49.372Z,1013.85
2022-12-25T10:06:49.349Z,1013.87
2022-12-25T10:07:49.346Z,1013.88
2022-12-25T10:08:49.375Z,1013.86
2022-12-25T10:09:49.318Z,1013.87
2022-12-25T10:10:49.315Z,1013.86
2022-12-25T10:11:49.295Z,1013.87
2022-12-25T10:12:49.330Z,1013.87
2022-12-25T10:13:49.294Z,1013.87
2022-12-25T10:14:49.301Z,1013.89
2022-12-25T10:15:49.296Z,1013.88
2022-12-25T10:16:49.242Z,1013.85
2022-12-25T10:17:49.251Z,1013.83
2022-12-25T10:18:49.222Z,1013.80
2022-12-25T10:19:49.246Z,1013.79
2022-12-25T10:20:49.223Z,1013.78
2022-12-25T10:21:49.222Z,1013.79
2022-12-25T10:22:49.176Z,1013.82
2022-12-25T10:23:49.181Z,1013.85
2022-12-25T10:24:49.191Z,1013.88
2022-12-25T10:25:49.178Z,1013.90
2022-12-25T10:26:49.140Z,1013.88
2022-12-25T10:27:49.154Z,1013.85
2022-12-25T10:28:49.144Z,1013.83
2022-12-25T10:29:49.157Z,1013.81
2022-12-25T10:30:49.189Z,1013.78
2022-12-25T10:31:49.113Z,1013.73
2022-12-25T10:32:49.093Z,1013.66
2022-12-25T10:33:49.092Z,1013.60
2022-12-25T10:34:49.082Z,1013.57
2022-12-25T10:35:49.056Z,1013.55
2022-12-25T10:36:49.037Z,1013.52
2022-12-25T10:37:49.041Z,1013.50
2022-12-25T10:38:49.045Z,1013.50
2022-12-25T10:39:49.041Z,1013.50
2022-12-25T10:40:49.006Z,1013.49
2022-12-25T10:41:49.018Z,1013.47
2022-12-25T10:42:48.983Z,1013.49
2022-12-25T10:43:48.998Z,1013.50
2022-12-25T10:44:49.000Z,1013.50
2022-12-25T10:45:49.002Z,1013.50
2022-12-25T10:46:49.071Z,1013.50
2022-12-25T10:47:55.002Z,1013.50
2022-12-25T10:48:48.929Z,1013.48
2022-12-25T10:49:48.929Z,1013.48
2022-12-25T10:50:48.894Z,1013.46
2022-12-25T10:51:48.928Z,1013.44
2022-12-25T10:52:48.880Z,1013.41
2022-12-25T10:53:48.871Z,1013.41
2022-12-25T10:54:48.871Z,1013.42
2022-12-25T10:55:48.840Z,1013.45
2022-12-25T10:56:48.833Z,1013.46
2022-12-25T10:57:48.848Z,1013.44
2022-12-25T10:58:48.805Z,1013.41
2022-12-25T10:59:48.856Z,1013.38
2022-12-25T11:00:48.783Z,1013.36
2022-12-25T11:01:52.356Z,1013.35
2022-12-25T11:02:48.985Z,1013.34
2022-12-25T11:03:48.808Z,1013.34
2022-12-25T11:04:48.771Z,1013.33
2022-12-25T11:05:48.778Z,1013.30
2022-12-25T11:06:48.729Z,1013.29
2022-12-25T11:07:48.719Z,1013.30
2022-12-25T11:08:48.725Z,1013.32
2022-12-25T11:09:48.721Z,1013.32
2022-12-25T11:10:48.684Z,1013.34
2022-12-25T11:11:48.672Z,1013.35
2022-12-25T11:12:48.666Z,1013.37
2022-12-25T11:13:48.660Z,1013.37
2022-12-25T11:14:48.665Z,1013.36
2022-12-25T11:15:48.695Z,1013.36
2022-12-25T11:16:48.624Z,1013.35
2022-12-25T11:17:48.609Z,1013.36
2022-12-25T11:18:48.600Z,1013.38
2022-12-25T11:19:48.614Z,1013.39
2022-12-25T11:20:48.587Z,1013.39
2022-12-25T11:21:48.569Z,1013.40
2022-12-25T11:22:48.585Z,1013.41
2022-12-25T11:23:48.545Z,1013.43
2022-12-25T11:24:48.555Z,1013.43
2022-12-25T11:25:48.521Z,1013.43
2022-12-25T11:26:48.543Z,1013.44
2022-12-25T11:27:51.932Z,1013.43
2022-12-25T11:28:48.620Z,1013.44
2022-12-25T11:29:48.537Z,1013.41
2022-12-25T11:30:48.577Z,1013.36
2022-12-25T11:31:48.562Z,1013.31
2022-12-25T11:32:48.448Z,1013.29
2022-12-25T11:33:48.452Z,1013.27
2022-12-25T11:34:48.525Z,1013.29
2022-12-25T11:35:48.480Z,1013.30
2022-12-25T11:36:48.428Z,1013.34
2022-12-25T11:37:48.433Z,1013.38
2022-12-25T11:38:48.396Z,1013.41
2022-12-25T11:39:48.419Z,1013.42
2022-12-25T11:40:48.413Z,1013.42
2022-12-25T11:41:48.369Z,1013.40
2022-12-25T11:42:48.378Z,1013.33
2022-12-25T11:43:48.386Z,1013.22
2022-12-25T11:44:48.344Z,1013.10
2022-12-25T11:45:48.337Z,1013.00
2022-12-25T11:46:48.426Z,1012.93
2022-12-25T11:47:48.311Z,1012.95
2022-12-25T11:48:48.291Z,1012.99
2022-12-25T11:49:50.221Z,1013.00
2022-12-25T11:50:48.296Z,1012.97
2022-12-25T11:51:48.250Z,1012.90
2022-12-25T11:52:48.305Z,1012.80
2022-12-25T11:53:48.339Z,1012.70
2022-12-25T11:54:48.244Z,1012.65
2022-12-25T11:55:48.211Z,1012.61
2022-12-25T11:56:48.213Z,1012.57
2022-12-25T11:57:48.199Z,1012.50
2022-12-25T11:58:48.192Z,1012.41
2022-12-25T11:59:48.197Z,1012.33
2022-12-25T12:00:48.164Z,1012.29
2022-12-25T12:01:48.385Z,1012.27
2022-12-25T12:02:48.218Z,1012.28
2022-12-25T12:03:48.169Z,1012.27
2022-12-25T12:04:48.145Z,1012.26
2022-12-25T12:05:48.148Z,1012.23